createdAt,value
2022-08-28T00:00:38.991Z,100525.47
2022-08-28T00:03:06.104Z,100526.47
2022-08-28T00:05:33.716Z,100528.31
2022-08-28T00:08:00.735Z,100525.09
2022-08-28T00:10:27.967Z,100531.69
2022-08-28T00:12:57.549Z,100529.16
2022-08-28T00:15:31.229Z,100529.63
2022-08-28T00:17:58.713Z,100526.09
2022-08-28T00:20:26.904Z,100534.19
2022-08-28T00:22:55.650Z,100534.97
2022-08-28T00:25:24.346Z,100524.03
2022-08-28T00:27:52.891Z,100525.88
2022-08-28T00:30:26.353Z,100525.69
2022-08-28T00:32:54.693Z,100523.81
2022-08-28T00:35:23.836Z,100531.59
2022-08-28T00:37:51.817Z,100535.84
2022-08-28T00:40:28.845Z,100526.72
2022-08-28T00:43:01.482Z,100532.44
2022-08-28T00:45:28.790Z,100535.13
2022-08-28T00:47:55.674Z,100528.06
2022-08-28T00:50:25.097Z,100531.31
2022-08-28T00:52:55.654Z,100533.69
2022-08-28T00:55:25.239Z,100539.53
2022-08-28T00:57:58.362Z,100534.91
2022-08-28T01:00:34.972Z,100534.31
2022-08-28T01:03:02.962Z,100534.34
2022-08-28T01:05:30.039Z,100528.97
2022-08-28T01:07:58.982Z,100541.00
2022-08-28T01:10:28.867Z,100532.06
2022-08-28T01:12:57.583Z,100536.47
2022-08-28T01:15:28.653Z,100530.22
2022-08-28T01:17:59.403Z,100547.34
2022-08-28T01:20:32.407Z,100540.41
2022-08-28T01:23:08.395Z,100543.00
2022-08-28T01:25:36.840Z,100526.53
2022-08-28T01:28:07.071Z,100541.69
2022-08-28T01:30:34.215Z,100536.84
2022-08-28T01:33:00.973Z,100539.25
2022-08-28T01:35:31.784Z,100541.09
2022-08-28T01:37:58.773Z,100537.03
2022-08-28T01:40:33.888Z,100541.97
2022-08-28T01:43:14.569Z,100543.88
2022-08-28T01:45:44.384Z,100540.38
2022-08-28T01:48:12.177Z,100535.09
2022-08-28T01:50:39.582Z,100536.13
2022-08-28T01:53:07.303Z,100537.13
2022-08-28T01:55:39.526Z,100536.31
2022-08-28T01:58:07.103Z,100535.28
2022-08-28T02:00:34.187Z,100543.19
2022-08-28T02:03:01.347Z,100537.81
2022-08-28T02:05:31.241Z,100538.13
2022-08-28T02:07:59.384Z,100539.28
2022-08-28T02:10:27.665Z,100549.19
2022-08-28T02:12:56.153Z,100546.50
2022-08-28T02:15:27.037Z,100549.03
2022-08-28T02:17:53.872Z,100545.00
2022-08-28T02:20:20.695Z,100542.31
2022-08-28T02:22:47.387Z,100546.44
2022-08-28T02:25:15.139Z,100543.88
2022-08-28T02:27:41.874Z,100536.25
2022-08-28T02:30:11.863Z,100540.66
2022-08-28T02:32:39.087Z,100540.03
2022-08-28T02:35:12.000Z,100536.81
2022-08-28T02:37:39.808Z,100543.41
2022-08-28T02:40:07.511Z,100539.50
2022-08-28T02:42:34.426Z,100542.03
2022-08-28T02:45:01.198Z,100541.47
2022-08-28T02:47:27.912Z,100539.50
2022-08-28T02:49:54.796Z,100547.13
2022-08-28T02:52:22.583Z,100537.97
2022-08-28T02:54:49.345Z,100540.56
2022-08-28T02:57:16.339Z,100544.56
2022-08-28T02:59:44.091Z,100540.09
2022-08-28T03:02:10.949Z,100548.88
2022-08-28T03:04:38.280Z,100545.72
2022-08-28T03:07:07.464Z,100560.56
2022-08-28T03:09:34.246Z,100554.03
2022-08-28T03:12:02.276Z,100556.03
2022-08-28T03:14:29.106Z,100550.13
2022-08-28T03:16:55.826Z,100550.56
2022-08-28T03:19:22.708Z,100557.72
2022-08-28T03:21:49.402Z,100552.41
2022-08-28T03:24:19.868Z,100552.81
2022-08-28T03:26:46.669Z,100556.72
2022-08-28T03:29:13.891Z,100554.94
2022-08-28T03:31:40.951Z,100565.13
2022-08-28T03:34:07.798Z,100560.94
2022-08-28T03:36:34.504Z,100555.50
2022-08-28T03:39:03.197Z,100562.06
2022-08-28T03:41:30.794Z,100553.41
2022-08-28T03:44:00.014Z,100556.66
2022-08-28T03:46:28.410Z,100563.63
2022-08-28T03:48:55.660Z,100560.94
2022-08-28T03:51:29.402Z,100563.84
2022-08-28T03:53:57.832Z,100561.16
2022-08-28T03:56:26.173Z,100559.19
2022-08-28T03:58:57.530Z,100558.63
2022-08-28T04:01:25.110Z,100561.25
2022-08-28T04:03:51.885Z,100559.38
2022-08-28T04:06:19.922Z,100562.47
2022-08-28T04:08:47.696Z,100565.00
2022-08-28T04:11:14.559Z,100566.16
2022-08-28T04:13:42.185Z,100574.13
2022-08-28T04:16:11.357Z,100570.84
2022-08-28T04:18:40.227Z,100573.06
2022-08-28T04:21:12.775Z,100569.16
2022-08-28T04:23:43.349Z,100576.22
2022-08-28T04:26:13.002Z,100575.53
2022-08-28T04:28:39.915Z,100585.38
2022-08-28T04:31:07.836Z,100581.47
2022-08-28T04:33:35.883Z,100590.53
2022-08-28T04:36:08.814Z,100592.88
2022-08-28T04:38:36.817Z,100592.53
2022-08-28T04:41:07.667Z,100598.00
2022-08-28T04:43:34.672Z,100595.81
2022-08-28T04:46:07.268Z,100602.03
2022-08-28T04:48:34.894Z,100600.66
2022-08-28T04:51:02.067Z,100605.44
2022-08-28T04:53:29.632Z,100599.66
2022-08-28T04:55:59.111Z,100606.03
2022-08-28T04:58:27.421Z,100604.63
2022-08-28T05:00:54.713Z,100612.13
2022-08-28T05:03:21.828Z,100602.66
2022-08-28T05:05:52.047Z,100608.13
2022-08-28T05:08:21.920Z,100604.28
2022-08-28T05:10:49.004Z,100603.72
2022-08-28T05:13:16.608Z,100601.84
2022-08-28T05:15:46.457Z,100606.41
2022-08-28T05:18:14.861Z,100617.53
2022-08-28T05:20:44.753Z,100613.75
2022-08-28T05:23:13.190Z,100615.94
2022-08-28T05:25:42.878Z,100618.69
2022-08-28T05:28:12.323Z,100615.84
2022-08-28T05:30:40.220Z,100624.03
2022-08-28T05:33:12.389Z,100625.56
2022-08-28T05:35:43.237Z,100620.59
2022-08-28T05:38:11.088Z,100622.47
2022-08-28T05:40:46.257Z,100626.47
2022-08-28T05:43:16.361Z,100632.94
2022-08-28T05:46:05.916Z,100620.22
2022-08-28T05:48:37.089Z,100624.84
2022-08-28T05:51:11.642Z,100623.03
2022-08-28T05:53:41.320Z,100626.66
2022-08-28T05:56:09.679Z,100624.03
2022-08-28T05:58:37.859Z,100620.88
2022-08-28T06:01:20.183Z,100618.66
2022-08-28T06:03:55.922Z,100628.34
2022-08-28T06:09:26.573Z,100625.22
2022-08-28T06:12:01.852Z,100626.13
2022-08-28T06:14:29.817Z,100634.53
2022-08-28T06:17:05.035Z,100628.94
2022-08-28T06:19:41.547Z,100626.38
2022-08-28T06:22:24.621Z,100625.53
2022-08-28T06:24:51.762Z,100640.13
2022-08-28T06:27:18.639Z,100630.94
2022-08-28T06:29:45.959Z,100629.25
2022-08-28T06:35:16.443Z,100633.88
2022-08-28T06:38:12.250Z,100633.19
2022-08-28T06:40:53.414Z,100624.66
2022-08-28T06:43:23.023Z,100640.09
2022-08-28T06:45:54.528Z,100646.34
2022-08-28T06:48:24.044Z,100644.59
2022-08-28T06:50:55.345Z,100652.00
2022-08-28T06:53:27.400Z,100661.13
2022-08-28T06:56:01.841Z,100657.94
2022-08-28T06:58:29.405Z,100661.03
2022-08-28T07:01:14.271Z,100670.19
2022-08-28T07:03:44.609Z,100675.81
2022-08-28T07:06:13.712Z,100671.47
2022-08-28T07:08:41.290Z,100688.81
2022-08-28T07:11:15.061Z,100679.50
2022-08-28T07:13:42.290Z,100683.31
2022-08-28T07:16:09.935Z,100684.88
2022-08-28T07:18:37.167Z,100683.47
2022-08-28T07:21:03.968Z,100687.97
2022-08-28T07:23:32.116Z,100687.72
2022-08-28T07:25:58.904Z,100693.53
2022-08-28T07:28:25.805Z,100695.53
2022-08-28T07:31:03.968Z,100694.75
2022-08-28T07:33:31.838Z,100706.34
2022-08-28T07:35:59.391Z,100712.56
2022-08-28T07:38:26.948Z,100709.75
2022-08-28T07:40:54.677Z,100709.44
2022-08-28T07:43:40.114Z,100713.72
2022-08-28T07:46:09.541Z,100719.78
2022-08-28T07:48:41.423Z,100721.78
2022-08-28T07:51:09.790Z,100730.59
2022-08-28T07:53:41.416Z,100723.38
2022-08-28T08:00:01.535Z,100729.03
2022-08-28T08:02:38.201Z,100730.19
2022-08-28T08:05:05.567Z,100740.91
2022-08-28T08:07:33.298Z,100722.13
2022-08-28T08:10:00.044Z,100729.31
2022-08-28T08:12:29.512Z,100734.41
2022-08-28T08:14:56.392Z,100734.28
2022-08-28T08:17:26.566Z,100753.22
2022-08-28T08:19:54.266Z,100736.97
2022-08-28T08:22:21.100Z,100737.22
2022-08-28T08:24:48.614Z,100744.03
2022-08-28T08:27:15.443Z,100746.97
2022-08-28T08:29:42.234Z,100740.47
2022-08-28T08:32:11.115Z,100750.38
2022-08-28T08:34:40.892Z,100745.78
2022-08-28T08:37:07.899Z,100751.91
2022-08-28T08:39:35.591Z,100752.06
2022-08-28T08:42:05.312Z,100753.25
2022-08-28T08:44:47.021Z,100752.50
2022-08-28T08:47:31.280Z,100756.19
2022-08-28T08:50:00.728Z,100754.91
2022-08-28T08:52:56.331Z,100759.59
2022-08-28T08:55:47.495Z,100759.00
2022-08-28T08:58:22.523Z,100773.28
2022-08-28T09:00:58.360Z,100765.38
2022-08-28T09:04:00.784Z,100767.66
2022-08-28T09:06:44.615Z,100767.94
2022-08-28T09:09:25.986Z,100771.59
2022-08-28T09:12:05.391Z,100767.38
2022-08-28T09:14:38.170Z,100767.38
2022-08-28T09:17:06.400Z,100762.81
2022-08-28T09:19:33.237Z,100770.47
2022-08-28T09:22:00.160Z,100767.78
2022-08-28T09:24:32.181Z,100769.53
2022-08-28T09:27:06.020Z,100773.03
2022-08-28T09:29:38.972Z,100776.84
2022-08-28T09:32:26.288Z,100790.28
2022-08-28T09:35:24.321Z,100776.69
2022-08-28T09:37:51.707Z,100787.97
2022-08-28T09:40:24.591Z,100786.41
2022-08-28T09:43:26.622Z,100781.78
2022-08-28T09:46:03.128Z,100782.78
2022-08-28T09:48:43.528Z,100783.50
2022-08-28T09:51:13.258Z,100784.19
2022-08-28T09:54:02.330Z,100784.75
2022-08-28T09:56:40.788Z,100785.34
2022-08-28T09:59:10.218Z,100788.03
2022-08-28T10:02:13.248Z,100788.72
2022-08-28T10:05:03.689Z,100789.72
2022-08-28T10:07:37.648Z,100789.19
2022-08-28T10:10:22.348Z,100787.03
2022-08-28T10:13:01.647Z,100788.47
2022-08-28T10:16:06.240Z,100795.09
2022-08-28T10:19:15.095Z,100794.25
2022-08-28T10:21:44.597Z,100803.19
2022-08-28T10:24:26.485Z,100804.88
2022-08-28T10:27:06.441Z,100799.50
2022-08-28T10:30:13.944Z,100801.19
2022-08-28T10:33:08.043Z,100802.28
2022-08-28T10:35:50.310Z,100810.84
2022-08-28T10:38:27.118Z,100807.16
2022-08-28T10:41:04.597Z,100811.53
2022-08-28T10:43:45.848Z,100818.47
2022-08-28T10:46:23.138Z,100815.09
2022-08-28T10:49:01.707Z,100827.38
2022-08-28T10:51:43.615Z,100817.94
2022-08-28T10:54:21.297Z,100825.09
2022-08-28T10:56:56.537Z,100818.06
2022-08-28T10:59:25.457Z,100833.03
2022-08-28T11:01:52.522Z,100822.81
2022-08-28T11:04:26.972Z,100822.13
2022-08-28T11:06:56.361Z,100831.31
2022-08-28T11:09:42.168Z,100831.59
2022-08-28T11:12:37.380Z,100840.19
2022-08-28T11:15:36.762Z,100831.88
2022-08-28T11:18:18.019Z,100842.75
2022-08-28T11:21:13.528Z,100843.91
2022-08-28T11:23:51.507Z,100848.28
2022-08-28T11:26:46.681Z,100848.69
2022-08-28T11:29:51.935Z,100849.84
2022-08-28T11:32:30.870Z,100847.88
2022-08-28T11:35:03.726Z,100848.88
2022-08-28T11:37:49.111Z,100850.72
2022-08-28T11:40:33.378Z,100850.72
2022-08-28T11:43:15.995Z,100854.09
2022-08-28T11:45:45.689Z,100865.41
2022-08-28T11:48:25.915Z,100859.50
2022-08-28T11:50:58.639Z,100857.59
2022-08-28T11:53:51.050Z,100856.66
2022-08-28T11:56:41.117Z,100863.16
2022-08-28T11:59:46.758Z,100853.44
2022-08-28T12:02:40.070Z,100845.94
2022-08-28T12:05:11.057Z,100852.25
2022-08-28T12:07:51.714Z,100854.53
2022-08-28T12:10:50.298Z,100839.97
2022-08-28T12:13:50.502Z,100840.16
2022-08-28T12:16:18.002Z,100847.22
2022-08-28T12:18:51.657Z,100847.91
2022-08-28T12:21:26.090Z,100847.44
2022-08-28T12:24:05.337Z,100840.78
2022-08-28T12:26:59.928Z,100825.56
2022-08-28T12:30:10.007Z,100825.06
2022-08-28T12:35:36.815Z,100833.13
2022-08-28T12:38:06.696Z,100844.19
2022-08-28T12:40:53.783Z,100851.38
2022-08-28T12:43:34.778Z,100838.81
2022-08-28T12:46:04.967Z,100845.88
2022-08-28T12:48:50.945Z,100843.88
2022-08-28T12:56:58.966Z,100839.88
2022-08-28T12:58:47.744Z,100830.38
2022-08-28T13:01:34.153Z,100833.06
2022-08-28T13:07:29.350Z,100839.94
2022-08-28T13:10:27.253Z,100833.88
2022-08-28T13:13:07.013Z,100830.44
2022-08-28T13:15:47.895Z,100833.22
2022-08-28T13:18:50.042Z,100832.97
2022-08-28T13:21:33.183Z,100834.78
2022-08-28T13:25:19.117Z,100841.66
2022-08-28T13:28:26.265Z,100836.50
2022-08-28T13:34:20.279Z,100835.41
2022-08-28T13:36:49.650Z,100844.56
2022-08-28T13:39:17.851Z,100831.72
2022-08-28T13:41:47.797Z,100846.50
2022-08-28T13:44:48.647Z,100833.69
2022-08-28T13:47:15.895Z,100825.97
2022-08-28T13:49:42.952Z,100838.63
2022-08-28T13:52:10.769Z,100834.38
2022-08-28T13:54:38.048Z,100831.41
2022-08-28T13:57:09.378Z,100826.56
2022-08-28T13:59:36.067Z,100821.44
2022-08-28T14:02:24.229Z,100833.84
2022-08-28T14:04:51.043Z,100844.88
2022-08-28T14:07:18.292Z,100831.75
2022-08-28T14:09:45.236Z,100826.88
2022-08-28T14:12:12.203Z,100826.50
2022-08-28T14:14:39.325Z,100825.34
2022-08-28T14:17:07.190Z,100818.69
2022-08-28T14:19:34.505Z,100822.63
2022-08-28T14:22:01.269Z,100820.34
2022-08-28T14:24:28.303Z,100821.69
2022-08-28T14:26:55.597Z,100815.53
2022-08-28T14:29:22.284Z,100813.25
2022-08-28T14:31:49.234Z,100812.34
2022-08-28T14:34:19.460Z,100806.66
2022-08-28T14:36:50.943Z,100812.16
2022-08-28T14:39:20.367Z,100806.94
2022-08-28T14:41:49.595Z,100800.22
2022-08-28T14:44:16.517Z,100798.34
2022-08-28T14:46:45.824Z,100800.78
2022-08-28T14:49:14.685Z,100805.81
2022-08-28T14:51:42.605Z,100802.84
2022-08-28T14:54:52.388Z,100803.69
2022-08-28T14:57:36.297Z,100806.00
2022-08-28T15:00:37.897Z,100797.88
2022-08-28T15:03:36.205Z,100792.34
2022-08-28T15:06:34.882Z,100792.91
2022-08-28T15:09:24.902Z,100805.38
2022-08-28T15:11:57.672Z,100802.44
2022-08-28T15:14:26.743Z,100791.78
2022-08-28T15:16:56.396Z,100792.16
2022-08-28T15:19:32.093Z,100797.88
2022-08-28T15:21:59.493Z,100797.94
2022-08-28T15:24:28.902Z,100800.84
2022-08-28T15:26:57.061Z,100792.13
2022-08-28T15:29:24.137Z,100792.81
2022-08-28T15:31:53.266Z,100798.53
2022-08-28T15:34:43.656Z,100789.50
2022-08-28T15:37:16.634Z,100801.16
2022-08-28T15:40:03.352Z,100793.63
2022-08-28T15:42:30.197Z,100790.56
2022-08-28T15:44:57.156Z,100790.09
2022-08-28T15:47:25.078Z,100788.59
2022-08-28T15:49:56.016Z,100789.34
2022-08-28T15:52:24.972Z,100791.69
2022-08-28T15:55:01.646Z,100790.53
2022-08-28T15:57:28.634Z,100781.09
2022-08-28T15:59:55.418Z,100782.41
2022-08-28T16:02:23.727Z,100792.59
2022-08-28T16:04:51.507Z,100796.00
2022-08-28T16:07:19.164Z,100794.81
2022-08-28T16:09:45.897Z,100794.22
2022-08-28T16:12:12.849Z,100787.59
2022-08-28T16:14:39.841Z,100797.53
2022-08-28T16:17:11.186Z,100786.31
2022-08-28T16:19:41.938Z,100794.09
2022-08-28T16:22:12.239Z,100793.91
2022-08-28T16:24:39.053Z,100790.16
2022-08-28T16:27:08.686Z,100788.66
2022-08-28T16:29:37.893Z,100794.13
2022-08-28T16:32:06.398Z,100792.59
2022-08-28T16:34:34.008Z,100795.03
2022-08-28T16:37:00.977Z,100788.97
2022-08-28T16:39:39.140Z,100780.91
2022-08-28T16:42:06.229Z,100789.72
2022-08-28T16:44:33.176Z,100785.03
2022-08-28T16:47:00.263Z,100788.13
2022-08-28T16:49:53.136Z,100788.13
2022-08-28T16:52:22.265Z,100786.25
2022-08-28T16:54:55.033Z,100778.34
2022-08-28T17:02:14.656Z,100784.94
2022-08-28T17:04:52.305Z,100775.81
2022-08-28T17:07:57.932Z,100772.84
2022-08-28T17:11:34.131Z,100786.41
2022-08-28T17:14:00.974Z,100784.66
2022-08-28T17:16:30.305Z,100780.63
2022-08-28T17:18:58.177Z,100782.69
2022-08-28T17:21:43.964Z,100792.44
2022-08-28T17:24:14.624Z,100794.59
2022-08-28T17:26:42.592Z,100796.81
2022-08-28T17:29:09.527Z,100805.75
2022-08-28T17:31:36.786Z,100811.16
2022-08-28T17:34:03.608Z,100804.00
2022-08-28T17:36:33.435Z,100803.97
2022-08-28T17:39:09.217Z,100809.38
2022-08-28T17:41:36.054Z,100801.34
2022-08-28T17:44:05.094Z,100802.78
2022-08-28T17:46:37.509Z,100803.56
2022-08-28T17:49:06.659Z,100806.63
2022-08-28T17:51:43.534Z,100805.94
2022-08-28T17:54:13.097Z,100806.81
2022-08-28T17:56:40.365Z,100811.97
2022-08-28T17:59:07.292Z,100819.53
2022-08-28T18:01:34.297Z,100820.53
2022-08-28T18:04:01.060Z,100831.16
2022-08-28T18:06:27.868Z,100824.69
2022-08-28T18:08:54.654Z,100832.97
2022-08-28T18:11:23.911Z,100832.41
2022-08-28T18:13:50.695Z,100830.06
2022-08-28T18:16:18.191Z,100834.41
2022-08-28T18:18:45.057Z,100838.81
2022-08-28T18:21:12.390Z,100841.69
2022-08-28T18:23:39.995Z,100839.13
2022-08-28T18:26:08.384Z,100854.81
2022-08-28T18:28:35.612Z,100849.38
2022-08-28T18:31:03.667Z,100850.72
2022-08-28T18:33:30.561Z,100855.19
2022-08-28T18:35:57.619Z,100850.59
2022-08-28T18:38:28.239Z,100861.69
2022-08-28T18:40:55.297Z,100867.44
2022-08-28T18:43:22.628Z,100868.59
2022-08-28T18:45:49.703Z,100864.91
2022-08-28T18:48:16.628Z,100865.69
2022-08-28T18:50:46.353Z,100866.41
2022-08-28T18:53:14.642Z,100872.22
2022-08-28T18:55:41.598Z,100874.63
2022-08-28T18:58:08.366Z,100877.75
2022-08-28T19:00:38.427Z,100875.53
2022-08-28T19:03:05.839Z,100881.81
2022-08-28T19:05:33.528Z,100870.56
2022-08-28T19:08:00.742Z,100876.22
2022-08-28T19:10:34.001Z,100882.81
2022-08-28T19:13:01.519Z,100878.91
2022-08-28T19:15:29.278Z,100892.66
2022-08-28T19:17:56.296Z,100892.81
2022-08-28T19:20:23.119Z,100891.84
2022-08-28T19:22:50.034Z,100895.53
2022-08-28T19:25:28.148Z,100896.81
2022-08-28T19:27:59.009Z,100899.53
2022-08-28T19:30:27.789Z,100898.97
2022-08-28T19:32:55.036Z,100899.41
2022-08-28T19:35:24.518Z,100898.56
2022-08-28T19:37:54.672Z,100899.44
2022-08-28T19:40:22.055Z,100898.84
2022-08-28T19:42:50.139Z,100902.53
2022-08-28T19:45:17.883Z,100904.25
2022-08-28T19:47:44.906Z,100911.63
2022-08-28T19:50:13.002Z,100911.47
2022-08-28T19:52:40.142Z,100911.75
2022-08-28T19:55:07.858Z,100912.47
2022-08-28T19:57:35.114Z,100922.66
2022-08-28T20:00:02.412Z,100919.09
2022-08-28T20:02:31.112Z,100924.94
2022-08-28T20:04:57.889Z,100913.34
2022-08-28T20:07:25.079Z,100914.19
2022-08-28T20:09:52.421Z,100919.28
2022-08-28T20:12:19.679Z,100912.59
2022-08-28T20:14:47.454Z,100924.88
2022-08-28T20:17:14.573Z,100929.97
2022-08-28T20:19:41.431Z,100920.34
2022-08-28T20:22:11.075Z,100933.50
2022-08-28T20:24:39.340Z,100922.31
2022-08-28T20:27:06.308Z,100927.25
2022-08-28T20:29:36.537Z,100928.13
2022-08-28T20:32:03.544Z,100931.50
2022-08-28T20:34:30.224Z,100926.78
2022-08-28T20:36:56.948Z,100929.75
2022-08-28T20:39:23.689Z,100930.75
2022-08-28T20:41:50.673Z,100939.09
2022-08-28T20:44:19.405Z,100946.78
2022-08-28T20:46:51.244Z,100934.63
2022-08-28T20:49:21.820Z,100940.53
2022-08-28T20:51:57.748Z,100934.84
2022-08-28T20:54:30.667Z,100940.97
2022-08-28T20:57:00.321Z,100935.88
2022-08-28T20:59:29.697Z,100932.88
2022-08-28T21:02:05.456Z,100937.38
2022-08-28T21:04:36.173Z,100938.78
2022-08-28T21:07:03.326Z,100941.38
2022-08-28T21:09:44.001Z,100937.94
2022-08-28T21:12:16.965Z,100940.50
2022-08-28T21:14:44.447Z,100946.19
2022-08-28T21:17:29.371Z,100942.41
2022-08-28T21:20:00.582Z,100947.72
2022-08-28T21:22:27.557Z,100945.88
2022-08-28T21:24:54.292Z,100943.41
2022-08-28T21:27:21.007Z,100949.28
2022-08-28T21:29:47.942Z,100946.78
2022-08-28T21:32:14.678Z,100952.66
2022-08-28T21:34:41.374Z,100953.53
2022-08-28T21:37:08.097Z,100953.69
2022-08-28T21:39:35.367Z,100951.91
2022-08-28T21:42:02.148Z,100949.63
2022-08-28T21:44:29.130Z,100953.75
2022-08-28T21:46:55.838Z,100951.84
2022-08-28T21:49:23.162Z,100944.06
2022-08-28T21:51:50.534Z,100949.28
2022-08-28T21:54:18.317Z,100944.81
2022-08-28T21:56:46.367Z,100944.56
2022-08-28T21:59:15.185Z,100944.78
2022-08-28T22:01:42.073Z,100944.06
2022-08-28T22:04:11.756Z,100940.16
2022-08-28T22:06:40.060Z,100948.59
2022-08-28T22:09:08.000Z,100949.19
2022-08-28T22:11:35.025Z,100949.31
2022-08-28T22:14:01.788Z,100959.69
2022-08-28T22:16:28.837Z,100953.72
2022-08-28T22:18:55.822Z,100961.47
2022-08-28T22:21:43.765Z,100955.41
2022-08-28T22:24:11.813Z,100968.19
2022-08-28T22:26:39.184Z,100964.41
2022-08-28T22:29:06.172Z,100969.63
2022-08-28T22:31:32.959Z,100966.47
2022-08-28T22:33:59.711Z,100971.72
2022-08-28T22:36:29.152Z,100975.97
2022-08-28T22:38:56.472Z,100983.78
2022-08-28T22:41:24.279Z,100976.09
2022-08-28T22:43:51.706Z,100977.91
2022-08-28T22:46:20.796Z,100971.34
2022-08-28T22:48:47.628Z,100973.03
2022-08-28T22:51:18.560Z,100971.56
2022-08-28T22:53:46.845Z,100975.25
2022-08-28T22:56:13.715Z,100976.56
2022-08-28T22:58:40.712Z,100974.13
2022-08-28T23:01:15.854Z,100973.75
2022-08-28T23:03:42.662Z,100974.50
2022-08-28T23:06:09.451Z,100979.72
2022-08-28T23:08:36.360Z,100979.97
2022-08-28T23:11:03.797Z,100974.63
2022-08-28T23:13:31.054Z,100971.44
2022-08-28T23:15:58.337Z,100974.16
2022-08-28T23:18:25.541Z,100970.72
2022-08-28T23:20:55.459Z,100968.66
2022-08-28T23:23:23.514Z,100974.63
2022-08-28T23:25:50.614Z,100970.81
2022-08-28T23:28:18.259Z,100970.34
2022-08-28T23:30:48.481Z,100965.00
2022-08-28T23:33:23.772Z,100960.63
2022-08-28T23:35:52.218Z,100961.69
2022-08-28T23:38:19.262Z,100966.88
2022-08-28T23:40:48.279Z,100966.19
2022-08-28T23:43:15.549Z,100967.63
2022-08-28T23:45:44.421Z,100968.03
2022-08-28T23:48:12.165Z,100971.03
2022-08-28T23:50:41.722Z,100975.47
2022-08-28T23:53:09.105Z,100968.41
2022-08-28T23:55:36.629Z,100967.00
2022-08-28T23:58:04.194Z,100969.19
